sensor_id;sensor_type;location;lat;lon;timestamp;P1;durP1;ratioP1;P2;durP2;ratioP2
66581;SDS011;53438;48.898;2.308;2023-02-15T00:01:10;67.87;;;32.10;;
66581;SDS011;53438;48.898;2.308;2023-02-15T00:03:36;62.60;;;30.77;;
66581;SDS011;53438;48.898;2.308;2023-02-15T00:06:03;62.85;;;30.52;;
66581;SDS011;53438;48.898;2.308;2023-02-15T00:08:29;63.40;;;31.40;;
66581;SDS011;53438;48.898;2.308;2023-02-15T00:11:07;62.57;;;32.30;;
66581;SDS011;53438;48.898;2.308;2023-02-15T00:13:37;65.93;;;32.30;;
66581;SDS011;53438;48.898;2.308;2023-02-15T00:16:07;58.92;;;32.05;;
66581;SDS011;53438;48.898;2.308;2023-02-15T00:18:40;61.23;;;30.67;;
66581;SDS011;53438;48.898;2.308;2023-02-15T00:21:08;59.78;;;31.70;;
66581;SDS011;53438;48.898;2.308;2023-02-15T00:23:35;63.55;;;32.83;;
66581;SDS011;53438;48.898;2.308;2023-02-15T00:26:07;62.30;;;31.73;;
66581;SDS011;53438;48.898;2.308;2023-02-15T00:28:34;66.03;;;34.43;;
66581;SDS011;53438;48.898;2.308;2023-02-15T00:31:03;70.28;;;34.00;;
66581;SDS011;53438;48.898;2.308;2023-02-15T00:33:33;68.17;;;32.53;;
66581;SDS011;53438;48.898;2.308;2023-02-15T00:35:59;63.10;;;33.25;;
66581;SDS011;53438;48.898;2.308;2023-02-15T00:38:26;62.77;;;33.20;;
66581;SDS011;53438;48.898;2.308;2023-02-15T00:40:56;67.20;;;34.13;;
66581;SDS011;53438;48.898;2.308;2023-02-15T00:43:23;69.82;;;34.30;;
66581;SDS011;53438;48.898;2.308;2023-02-15T00:45:49;65.75;;;33.40;;
66581;SDS011;53438;48.898;2.308;2023-02-15T00:48:14;68.77;;;33.93;;
66581;SDS011;53438;48.898;2.308;2023-02-15T00:50:39;63.87;;;33.00;;
66581;SDS011;53438;48.898;2.308;2023-02-15T00:53:05;67.03;;;34.50;;
66581;SDS011;53438;48.898;2.308;2023-02-15T00:55:30;66.47;;;34.75;;
66581;SDS011;53438;48.898;2.308;2023-02-15T00:57:56;71.33;;;34.20;;
66581;SDS011;53438;48.898;2.308;2023-02-15T04:02:03;66.13;;;33.73;;
66581;SDS011;53438;48.898;2.308;2023-02-15T04:04:35;71.57;;;33.97;;
66581;SDS011;53438;48.898;2.308;2023-02-15T04:07:03;67.85;;;34.47;;
66581;SDS011;53438;48.898;2.308;2023-02-15T04:09:31;65.70;;;33.97;;
66581;SDS011;53438;48.898;2.308;2023-02-15T04:12:15;64.28;;;32.88;;
66581;SDS011;53438;48.898;2.308;2023-02-15T04:14:40;70.97;;;35.83;;
66581;SDS011;53438;48.898;2.308;2023-02-15T04:17:24;77.75;;;38.75;;
66581;SDS011;53438;48.898;2.308;2023-02-15T04:19:49;70.77;;;36.40;;
66581;SDS011;53438;48.898;2.308;2023-02-15T04:22:34;74.82;;;35.45;;
66581;SDS011;53438;48.898;2.308;2023-02-15T04:25:17;64.03;;;34.23;;
66581;SDS011;53438;48.898;2.308;2023-02-15T04:27:44;75.38;;;36.55;;
66581;SDS011;53438;48.898;2.308;2023-02-15T04:30:12;72.53;;;35.77;;
66581;SDS011;53438;48.898;2.308;2023-02-15T04:32:39;70.95;;;35.83;;
66581;SDS011;53438;48.898;2.308;2023-02-15T04:35:05;76.47;;;37.92;;
66581;SDS011;53438;48.898;2.308;2023-02-15T04:37:31;72.82;;;35.63;;
66581;SDS011;53438;48.898;2.308;2023-02-15T04:39:57;69.65;;;35.00;;
66581;SDS011;53438;48.898;2.308;2023-02-15T04:42:23;70.55;;;36.13;;
66581;SDS011;53438;48.898;2.308;2023-02-15T04:44:50;75.03;;;35.50;;
66581;SDS011;53438;48.898;2.308;2023-02-15T04:47:15;73.93;;;36.80;;
66581;SDS011;53438;48.898;2.308;2023-02-15T04:49:41;74.53;;;35.83;;
66581;SDS011;53438;48.898;2.308;2023-02-15T04:52:06;64.30;;;35.87;;
66581;SDS011;53438;48.898;2.308;2023-02-15T04:54:32;71.85;;;35.92;;
66581;SDS011;53438;48.898;2.308;2023-02-15T04:56:58;72.63;;;36.93;;
66581;SDS011;53438;48.898;2.308;2023-02-15T04:59:23;72.00;;;36.13;;
66581;SDS011;53438;48.898;2.308;2023-02-15T05:01:49;74.80;;;35.47;;
66581;SDS011;53438;48.898;2.308;2023-02-15T05:04:14;73.37;;;35.83;;
66581;SDS011;53438;48.898;2.308;2023-02-15T05:06:39;72.20;;;35.80;;
66581;SDS011;53438;48.898;2.308;2023-02-15T05:09:04;72.82;;;36.15;;
66581;SDS011;53438;48.898;2.308;2023-02-15T05:11:30;73.50;;;37.20;;
66581;SDS011;53438;48.898;2.308;2023-02-15T05:13:55;65.77;;;35.63;;
66581;SDS011;53438;48.898;2.308;2023-02-15T05:16:21;71.67;;;35.20;;
66581;SDS011;53438;48.898;2.308;2023-02-15T05:18:46;73.23;;;35.67;;
66581;SDS011;53438;48.898;2.308;2023-02-15T05:21:11;72.70;;;36.97;;
66581;SDS011;53438;48.898;2.308;2023-02-15T05:23:38;74.57;;;35.88;;
66581;SDS011;53438;48.898;2.308;2023-02-15T05:26:04;67.70;;;34.13;;
66581;SDS011;53438;48.898;2.308;2023-02-15T05:28:47;71.78;;;36.83;;
66581;SDS011;53438;48.898;2.308;2023-02-15T05:31:14;77.73;;;35.77;;
66581;SDS011;53438;48.898;2.308;2023-02-15T05:33:41;79.32;;;37.13;;
66581;SDS011;53438;48.898;2.308;2023-02-15T05:36:08;70.53;;;36.97;;
66581;SDS011;53438;48.898;2.308;2023-02-15T05:38:34;71.30;;;34.95;;
66581;SDS011;53438;48.898;2.308;2023-02-15T05:41:02;68.95;;;35.47;;
66581;SDS011;53438;48.898;2.308;2023-02-15T05:43:27;72.90;;;35.40;;
66581;SDS011;53438;48.898;2.308;2023-02-15T05:45:54;78.10;;;36.75;;
66581;SDS011;53438;48.898;2.308;2023-02-15T05:48:20;69.13;;;34.50;;
66581;SDS011;53438;48.898;2.308;2023-02-15T05:50:56;76.75;;;36.38;;
66581;SDS011;53438;48.898;2.308;2023-02-15T05:53:33;74.93;;;37.00;;
66581;SDS011;53438;48.898;2.308;2023-02-15T05:56:00;72.32;;;34.35;;
66581;SDS011;53438;48.898;2.308;2023-02-15T05:58:27;77.05;;;35.45;;
66581;SDS011;53438;48.898;2.308;2023-02-15T06:00:55;77.43;;;35.47;;
66581;SDS011;53438;48.898;2.308;2023-02-15T06:03:20;74.85;;;34.80;;
66581;SDS011;53438;48.898;2.308;2023-02-15T06:05:47;76.47;;;36.58;;
66581;SDS011;53438;48.898;2.308;2023-02-15T06:08:12;70.30;;;35.17;;
66581;SDS011;53438;48.898;2.308;2023-02-15T06:10:38;69.33;;;35.43;;
66581;SDS011;53438;48.898;2.308;2023-02-15T06:13:05;71.35;;;34.53;;
66581;SDS011;53438;48.898;2.308;2023-02-15T06:15:30;66.47;;;33.90;;
66581;SDS011;53438;48.898;2.308;2023-02-15T06:17:56;72.22;;;34.53;;
66581;SDS011;53438;48.898;2.308;2023-02-15T06:20:21;68.70;;;34.30;;
66581;SDS011;53438;48.898;2.308;2023-02-15T06:22:47;67.80;;;34.70;;
66581;SDS011;53438;48.898;2.308;2023-02-15T06:25:12;71.67;;;35.77;;
66581;SDS011;53438;48.898;2.308;2023-02-15T06:27:40;71.87;;;34.50;;
66581;SDS011;53438;48.898;2.308;2023-02-15T06:30:07;75.22;;;34.38;;
66581;SDS011;53438;48.898;2.308;2023-02-15T06:32:33;76.95;;;35.75;;
66581;SDS011;53438;48.898;2.308;2023-02-15T06:34:58;77.07;;;34.97;;
66581;SDS011;53438;48.898;2.308;2023-02-15T06:37:24;68.43;;;34.37;;
66581;SDS011;53438;48.898;2.308;2023-02-15T06:39:49;69.32;;;34.50;;
66581;SDS011;53438;48.898;2.308;2023-02-15T06:42:14;66.45;;;32.85;;
66581;SDS011;53438;48.898;2.308;2023-02-15T06:44:40;73.17;;;33.43;;
66581;SDS011;53438;48.898;2.308;2023-02-15T06:47:05;70.50;;;33.90;;
66581;SDS011;53438;48.898;2.308;2023-02-15T06:49:31;63.27;;;31.90;;
66581;SDS011;53438;48.898;2.308;2023-02-15T06:51:56;71.93;;;34.47;;
66581;SDS011;53438;48.898;2.308;2023-02-15T06:54:21;78.73;;;35.83;;
66581;SDS011;53438;48.898;2.308;2023-02-15T06:56:47;70.80;;;34.03;;
66581;SDS011;53438;48.898;2.308;2023-02-15T06:59:12;75.30;;;35.50;;
66581;SDS011;53438;48.898;2.308;2023-02-15T07:01:37;78.63;;;34.20;;
66581;SDS011;53438;48.898;2.308;2023-02-15T07:04:03;79.67;;;36.77;;
66581;SDS011;53438;48.898;2.308;2023-02-15T07:06:32;75.03;;;37.60;;
66581;SDS011;53438;48.898;2.308;2023-02-15T07:08:58;80.20;;;37.10;;
66581;SDS011;53438;48.898;2.308;2023-02-15T07:11:23;68.77;;;34.87;;
66581;SDS011;53438;48.898;2.308;2023-02-15T07:14:07;72.28;;;33.33;;
66581;SDS011;53438;48.898;2.308;2023-02-15T07:16:33;81.23;;;35.43;;
66581;SDS011;53438;48.898;2.308;2023-02-15T07:18:58;72.80;;;33.70;;
66581;SDS011;53438;48.898;2.308;2023-02-15T07:21:23;69.32;;;33.58;;
66581;SDS011;53438;48.898;2.308;2023-02-15T07:23:49;70.60;;;34.13;;
66581;SDS011;53438;48.898;2.308;2023-02-15T07:26:14;69.27;;;33.07;;
66581;SDS011;53438;48.898;2.308;2023-02-15T07:28:40;71.57;;;33.83;;
66581;SDS011;53438;48.898;2.308;2023-02-15T07:31:05;61.83;;;31.13;;
66581;SDS011;53438;48.898;2.308;2023-02-15T07:33:31;61.13;;;30.73;;
66581;SDS011;53438;48.898;2.308;2023-02-15T07:35:58;69.15;;;32.90;;
66581;SDS011;53438;48.898;2.308;2023-02-15T07:38:26;69.32;;;35.13;;
66581;SDS011;53438;48.898;2.308;2023-02-15T07:40:57;73.25;;;32.90;;
66581;SDS011;53438;48.898;2.308;2023-02-15T07:43:23;73.43;;;34.53;;
66581;SDS011;53438;48.898;2.308;2023-02-15T07:45:49;80.10;;;33.53;;
66581;SDS011;53438;48.898;2.308;2023-02-15T07:48:14;69.97;;;33.43;;
66581;SDS011;53438;48.898;2.308;2023-02-15T07:50:39;72.70;;;34.23;;
66581;SDS011;53438;48.898;2.308;2023-02-15T07:53:05;76.40;;;35.93;;
66581;SDS011;53438;48.898;2.308;2023-02-15T07:55:30;74.07;;;33.40;;
66581;SDS011;53438;48.898;2.308;2023-02-15T07:57:55;92.50;;;44.17;;
66581;SDS011;53438;48.898;2.308;2023-02-15T08:00:22;82.23;;;36.30;;
66581;SDS011;53438;48.898;2.308;2023-02-15T08:02:51;73.50;;;34.53;;
66581;SDS011;53438;48.898;2.308;2023-02-15T08:05:36;66.53;;;31.88;;
66581;SDS011;53438;48.898;2.308;2023-02-15T08:08:01;78.10;;;33.23;;
66581;SDS011;53438;48.898;2.308;2023-02-15T08:10:26;69.70;;;33.93;;
66581;SDS011;53438;48.898;2.308;2023-02-15T08:13:12;70.90;;;33.03;;
66581;SDS011;53438;48.898;2.308;2023-02-15T08:15:37;72.93;;;33.10;;
66581;SDS011;53438;48.898;2.308;2023-02-15T08:18:03;83.10;;;36.07;;
66581;SDS011;53438;48.898;2.308;2023-02-15T08:20:28;74.05;;;35.78;;
66581;SDS011;53438;48.898;2.308;2023-02-15T08:22:53;78.97;;;34.03;;
66581;SDS011;53438;48.898;2.308;2023-02-15T08:25:20;77.53;;;36.00;;
66581;SDS011;53438;48.898;2.308;2023-02-15T08:27:45;80.78;;;36.03;;
66581;SDS011;53438;48.898;2.308;2023-02-15T08:30:11;80.07;;;35.23;;
66581;SDS011;53438;48.898;2.308;2023-02-15T08:32:39;81.63;;;34.83;;
66581;SDS011;53438;48.898;2.308;2023-02-15T08:35:04;75.47;;;36.47;;
66581;SDS011;53438;48.898;2.308;2023-02-15T08:37:30;73.20;;;33.13;;
66581;SDS011;53438;48.898;2.308;2023-02-15T08:39:55;76.53;;;36.30;;
66581;SDS011;53438;48.898;2.308;2023-02-15T08:42:20;77.67;;;36.40;;
66581;SDS011;53438;48.898;2.308;2023-02-15T08:44:46;75.67;;;36.73;;
66581;SDS011;53438;48.898;2.308;2023-02-15T08:47:11;77.25;;;37.80;;
66581;SDS011;53438;48.898;2.308;2023-02-15T08:49:36;82.43;;;37.37;;
66581;SDS011;53438;48.898;2.308;2023-02-15T08:52:02;78.00;;;37.97;;
66581;SDS011;53438;48.898;2.308;2023-02-15T08:54:28;83.30;;;37.97;;
66581;SDS011;53438;48.898;2.308;2023-02-15T08:56:53;76.22;;;37.53;;
66581;SDS011;53438;48.898;2.308;2023-02-15T08:59:20;77.17;;;36.80;;
66581;SDS011;53438;48.898;2.308;2023-02-15T09:01:47;76.50;;;39.15;;
66581;SDS011;53438;48.898;2.308;2023-02-15T09:04:14;79.70;;;38.70;;
66581;SDS011;53438;48.898;2.308;2023-02-15T09:06:40;81.67;;;37.43;;
66581;SDS011;53438;48.898;2.308;2023-02-15T09:09:08;70.25;;;36.17;;
66581;SDS011;53438;48.898;2.308;2023-02-15T09:11:38;74.32;;;36.97;;
66581;SDS011;53438;48.898;2.308;2023-02-15T09:14:07;76.10;;;36.95;;
66581;SDS011;53438;48.898;2.308;2023-02-15T09:16:34;78.90;;;36.25;;
66581;SDS011;53438;48.898;2.308;2023-02-15T09:19:01;71.73;;;35.87;;
66581;SDS011;53438;48.898;2.308;2023-02-15T09:21:27;83.28;;;37.75;;
66581;SDS011;53438;48.898;2.308;2023-02-15T09:24:02;79.28;;;37.10;;
66581;SDS011;53438;48.898;2.308;2023-02-15T09:26:32;88.03;;;36.80;;
66581;SDS011;53438;48.898;2.308;2023-02-15T09:29:00;82.05;;;36.55;;
66581;SDS011;53438;48.898;2.308;2023-02-15T09:31:28;86.77;;;38.07;;
66581;SDS011;53438;48.898;2.308;2023-02-15T09:33:55;78.32;;;37.22;;
66581;SDS011;53438;48.898;2.308;2023-02-15T09:36:23;110.90;;;49.20;;
66581;SDS011;53438;48.898;2.308;2023-02-15T09:38:56;103.78;;;41.42;;
66581;SDS011;53438;48.898;2.308;2023-02-15T09:41:40;93.32;;;39.28;;
66581;SDS011;53438;48.898;2.308;2023-02-15T09:47:29;91.95;;;39.90;;
66581;SDS011;53438;48.898;2.308;2023-02-15T10:00:56;90.63;;;40.30;;
66581;SDS011;53438;48.898;2.308;2023-02-15T10:05:56;92.80;;;40.87;;
66581;SDS011;53438;48.898;2.308;2023-02-15T10:09:27;92.90;;;40.10;;
66581;SDS011;53438;48.898;2.308;2023-02-15T10:12:00;86.65;;;38.25;;
66581;SDS011;53438;48.898;2.308;2023-02-15T10:14:43;87.63;;;39.40;;
66581;SDS011;53438;48.898;2.308;2023-02-15T10:23:35;90.28;;;41.65;;
66581;SDS011;53438;48.898;2.308;2023-02-15T10:28:49;88.82;;;41.30;;
66581;SDS011;53438;48.898;2.308;2023-02-15T10:37:08;97.25;;;42.83;;
66581;SDS011;53438;48.898;2.308;2023-02-15T10:42:29;94.97;;;44.05;;
66581;SDS011;53438;48.898;2.308;2023-02-15T10:45:19;93.28;;;42.25;;
66581;SDS011;53438;48.898;2.308;2023-02-15T10:51:00;92.30;;;43.37;;
66581;SDS011;53438;48.898;2.308;2023-02-15T11:04:48;97.70;;;44.37;;
66581;SDS011;53438;48.898;2.308;2023-02-15T11:07:23;91.13;;;43.08;;
66581;SDS011;53438;48.898;2.308;2023-02-15T11:09:51;87.32;;;42.92;;
66581;SDS011;53438;48.898;2.308;2023-02-15T11:12:24;91.28;;;44.08;;
66581;SDS011;53438;48.898;2.308;2023-02-15T11:17:39;100.73;;;47.00;;
66581;SDS011;53438;48.898;2.308;2023-02-15T11:22:58;85.88;;;41.53;;
66581;SDS011;53438;48.898;2.308;2023-02-15T11:25:28;84.32;;;43.53;;
66581;SDS011;53438;48.898;2.308;2023-02-15T11:27:56;78.78;;;41.85;;
66581;SDS011;53438;48.898;2.308;2023-02-15T11:30:26;90.20;;;43.00;;
66581;SDS011;53438;48.898;2.308;2023-02-15T11:32:59;80.75;;;42.03;;
66581;SDS011;53438;48.898;2.308;2023-02-15T11:35:31;83.87;;;41.60;;
66581;SDS011;53438;48.898;2.308;2023-02-15T11:38:18;82.97;;;40.63;;
66581;SDS011;53438;48.898;2.308;2023-02-15T11:41:03;85.25;;;42.05;;
66581;SDS011;53438;48.898;2.308;2023-02-15T11:46:08;87.13;;;42.42;;
66581;SDS011;53438;48.898;2.308;2023-02-15T11:48:37;81.03;;;41.70;;
66581;SDS011;53438;48.898;2.308;2023-02-15T11:51:02;80.40;;;42.10;;
66581;SDS011;53438;48.898;2.308;2023-02-15T11:53:31;79.55;;;41.60;;
66581;SDS011;53438;48.898;2.308;2023-02-15T11:55:58;80.13;;;40.38;;
66581;SDS011;53438;48.898;2.308;2023-02-15T12:06:22;83.50;;;41.20;;
66581;SDS011;53438;48.898;2.308;2023-02-15T12:09:00;83.40;;;40.45;;
66581;SDS011;53438;48.898;2.308;2023-02-15T12:11:42;79.25;;;41.53;;
66581;SDS011;53438;48.898;2.308;2023-02-15T12:14:08;89.47;;;43.07;;
66581;SDS011;53438;48.898;2.308;2023-02-15T12:16:40;86.93;;;43.72;;
66581;SDS011;53438;48.898;2.308;2023-02-15T12:21:56;88.65;;;44.33;;
66581;SDS011;53438;48.898;2.308;2023-02-15T12:24:25;88.73;;;44.20;;
66581;SDS011;53438;48.898;2.308;2023-02-15T12:27:01;86.47;;;44.53;;
66581;SDS011;53438;48.898;2.308;2023-02-15T12:29:48;88.00;;;44.78;;
66581;SDS011;53438;48.898;2.308;2023-02-15T12:32:26;85.20;;;43.97;;
66581;SDS011;53438;48.898;2.308;2023-02-15T12:35:08;91.32;;;43.72;;
66581;SDS011;53438;48.898;2.308;2023-02-15T12:37:38;88.93;;;45.43;;
66581;SDS011;53438;48.898;2.308;2023-02-15T12:40:26;91.38;;;44.40;;
66581;SDS011;53438;48.898;2.308;2023-02-15T12:42:52;85.50;;;45.03;;
66581;SDS011;53438;48.898;2.308;2023-02-15T12:45:23;124.47;;;54.90;;
66581;SDS011;53438;48.898;2.308;2023-02-15T12:50:49;93.28;;;48.20;;
66581;SDS011;53438;48.898;2.308;2023-02-15T12:53:17;82.50;;;41.83;;
66581;SDS011;53438;48.898;2.308;2023-02-15T12:55:55;80.43;;;45.03;;
66581;SDS011;53438;48.898;2.308;2023-02-15T12:58:28;87.95;;;44.55;;
66581;SDS011;53438;48.898;2.308;2023-02-15T13:01:16;79.93;;;41.30;;
66581;SDS011;53438;48.898;2.308;2023-02-15T13:04:03;89.05;;;42.60;;
66581;SDS011;53438;48.898;2.308;2023-02-15T13:06:31;74.50;;;41.03;;
66581;SDS011;53438;48.898;2.308;2023-02-15T13:09:06;83.35;;;40.10;;
66581;SDS011;53438;48.898;2.308;2023-02-15T13:11:39;87.97;;;42.67;;
66581;SDS011;53438;48.898;2.308;2023-02-15T13:14:17;79.53;;;42.10;;
66581;SDS011;53438;48.898;2.308;2023-02-15T13:16:44;82.07;;;42.05;;
66581;SDS011;53438;48.898;2.308;2023-02-15T13:19:16;84.13;;;42.30;;
66581;SDS011;53438;48.898;2.308;2023-02-15T13:21:56;87.75;;;41.88;;
66581;SDS011;53438;48.898;2.308;2023-02-15T13:24:26;88.28;;;43.45;;
66581;SDS011;53438;48.898;2.308;2023-02-15T13:26:58;77.80;;;41.05;;
66581;SDS011;53438;48.898;2.308;2023-02-15T13:29:25;82.90;;;41.37;;
66581;SDS011;53438;48.898;2.308;2023-02-15T13:31:53;81.20;;;40.88;;
66581;SDS011;53438;48.898;2.308;2023-02-15T13:34:22;79.78;;;42.85;;
66581;SDS011;53438;48.898;2.308;2023-02-15T13:42:11;81.70;;;39.97;;
66581;SDS011;53438;48.898;2.308;2023-02-15T13:47:50;82.35;;;40.05;;
66581;SDS011;53438;48.898;2.308;2023-02-15T13:53:31;77.45;;;38.67;;
66581;SDS011;53438;48.898;2.308;2023-02-15T13:58:51;68.45;;;38.05;;
66581;SDS011;53438;48.898;2.308;2023-02-15T14:14:58;67.15;;;35.65;;
66581;SDS011;53438;48.898;2.308;2023-02-15T14:17:36;65.80;;;37.08;;
66581;SDS011;53438;48.898;2.308;2023-02-15T14:20:30;64.50;;;37.08;;
66581;SDS011;53438;48.898;2.308;2023-02-15T14:23:28;71.47;;;38.13;;
66581;SDS011;53438;48.898;2.308;2023-02-15T14:26:09;70.20;;;36.40;;
66581;SDS011;53438;48.898;2.308;2023-02-15T14:31:28;70.07;;;37.22;;
66581;SDS011;53438;48.898;2.308;2023-02-15T14:33:58;71.30;;;34.70;;
66581;SDS011;53438;48.898;2.308;2023-02-15T14:36:24;67.23;;;38.10;;
66581;SDS011;53438;48.898;2.308;2023-02-15T14:42:20;71.23;;;36.53;;
66581;SDS011;53438;48.898;2.308;2023-02-15T14:44:49;69.47;;;34.47;;
66581;SDS011;53438;48.898;2.308;2023-02-15T14:47:40;66.28;;;35.25;;
66581;SDS011;53438;48.898;2.308;2023-02-15T14:56:04;59.27;;;33.37;;
66581;SDS011;53438;48.898;2.308;2023-02-15T14:58:36;69.55;;;33.40;;
66581;SDS011;53438;48.898;2.308;2023-02-15T15:01:50;60.45;;;33.65;;
66581;SDS011;53438;48.898;2.308;2023-02-15T15:03:53;58.83;;;34.42;;
66581;SDS011;53438;48.898;2.308;2023-02-15T15:06:29;64.78;;;32.70;;
66581;SDS011;53438;48.898;2.308;2023-02-15T15:08:58;58.10;;;31.50;;
66581;SDS011;53438;48.898;2.308;2023-02-15T15:11:51;60.63;;;33.83;;
66581;SDS011;53438;48.898;2.308;2023-02-15T15:14:36;59.42;;;31.88;;
66581;SDS011;53438;48.898;2.308;2023-02-15T15:17:03;58.42;;;31.48;;
66581;SDS011;53438;48.898;2.308;2023-02-15T15:20:03;55.22;;;33.35;;
66581;SDS011;53438;48.898;2.308;2023-02-15T15:22:23;52.63;;;32.00;;
66581;SDS011;53438;48.898;2.308;2023-02-15T15:24:54;56.95;;;32.47;;
66581;SDS011;53438;48.898;2.308;2023-02-15T15:27:39;55.53;;;30.83;;
66581;SDS011;53438;48.898;2.308;2023-02-15T15:46:03;60.95;;;30.13;;
66581;SDS011;53438;48.898;2.308;2023-02-15T15:48:38;54.20;;;29.67;;
66581;SDS011;53438;48.898;2.308;2023-02-15T15:51:10;52.63;;;29.98;;
66581;SDS011;53438;48.898;2.308;2023-02-15T15:53:43;55.20;;;31.63;;
66581;SDS011;53438;48.898;2.308;2023-02-15T15:56:18;50.85;;;29.05;;
66581;SDS011;53438;48.898;2.308;2023-02-15T15:58:50;58.67;;;30.02;;
66581;SDS011;53438;48.898;2.308;2023-02-15T16:01:23;60.70;;;30.80;;
66581;SDS011;53438;48.898;2.308;2023-02-15T16:03:51;53.60;;;29.13;;
66581;SDS011;53438;48.898;2.308;2023-02-15T16:09:10;58.38;;;30.00;;
66581;SDS011;53438;48.898;2.308;2023-02-15T16:11:37;54.90;;;30.92;;
66581;SDS011;53438;48.898;2.308;2023-02-15T16:14:13;52.75;;;31.15;;
66581;SDS011;53438;48.898;2.308;2023-02-15T16:16:41;54.13;;;30.77;;
66581;SDS011;53438;48.898;2.308;2023-02-15T16:19:19;60.70;;;30.77;;
66581;SDS011;53438;48.898;2.308;2023-02-15T16:21:47;56.85;;;30.33;;
66581;SDS011;53438;48.898;2.308;2023-02-15T16:24:16;56.95;;;29.88;;
66581;SDS011;53438;48.898;2.308;2023-02-15T16:29:28;55.50;;;28.40;;
66581;SDS011;53438;48.898;2.308;2023-02-15T16:32:00;50.00;;;28.60;;
66581;SDS011;53438;48.898;2.308;2023-02-15T16:34:30;49.17;;;29.05;;
66581;SDS011;53438;48.898;2.308;2023-02-15T16:37:16;56.35;;;29.90;;
66581;SDS011;53438;48.898;2.308;2023-02-15T16:39:44;51.75;;;28.65;;
66581;SDS011;53438;48.898;2.308;2023-02-15T16:42:13;53.05;;;30.50;;
66581;SDS011;53438;48.898;2.308;2023-02-15T16:44:40;54.57;;;30.37;;
66581;SDS011;53438;48.898;2.308;2023-02-15T16:47:16;54.85;;;29.67;;
66581;SDS011;53438;48.898;2.308;2023-02-15T16:49:46;50.17;;;27.38;;
66581;SDS011;53438;48.898;2.308;2023-02-15T16:52:21;45.83;;;27.80;;
66581;SDS011;53438;48.898;2.308;2023-02-15T16:54:58;52.13;;;27.40;;
66581;SDS011;53438;48.898;2.308;2023-02-15T16:57:28;47.15;;;26.20;;
66581;SDS011;53438;48.898;2.308;2023-02-15T17:00:00;51.60;;;26.63;;
66581;SDS011;53438;48.898;2.308;2023-02-15T17:03:01;45.33;;;25.52;;
66581;SDS011;53438;48.898;2.308;2023-02-15T17:05:33;45.93;;;25.53;;
66581;SDS011;53438;48.898;2.308;2023-02-15T17:13:37;54.58;;;27.05;;
66581;SDS011;53438;48.898;2.308;2023-02-15T17:20:54;53.67;;;26.03;;
66581;SDS011;53438;48.898;2.308;2023-02-15T17:23:30;48.58;;;25.02;;
66581;SDS011;53438;48.898;2.308;2023-02-15T17:25:58;45.30;;;24.17;;
66581;SDS011;53438;48.898;2.308;2023-02-15T17:28:27;48.38;;;25.55;;
66581;SDS011;53438;48.898;2.308;2023-02-15T17:30:55;53.05;;;26.00;;
66581;SDS011;53438;48.898;2.308;2023-02-15T17:33:23;44.80;;;24.38;;
66581;SDS011;53438;48.898;2.308;2023-02-15T17:36:18;46.70;;;24.10;;
66581;SDS011;53438;48.898;2.308;2023-02-15T17:39:06;46.97;;;22.73;;
66581;SDS011;53438;48.898;2.308;2023-02-15T17:41:45;40.85;;;23.33;;
66581;SDS011;53438;48.898;2.308;2023-02-15T17:44:12;43.25;;;24.70;;
66581;SDS011;53438;48.898;2.308;2023-02-15T17:46:40;46.80;;;26.50;;
66581;SDS011;53438;48.898;2.308;2023-02-15T17:49:06;52.53;;;27.83;;
66581;SDS011;53438;48.898;2.308;2023-02-15T17:51:32;49.37;;;26.63;;
66581;SDS011;53438;48.898;2.308;2023-02-15T17:54:00;44.42;;;24.50;;
66581;SDS011;53438;48.898;2.308;2023-02-15T17:56:44;41.25;;;24.48;;
66581;SDS011;53438;48.898;2.308;2023-02-15T17:59:10;48.33;;;26.37;;
66581;SDS011;53438;48.898;2.308;2023-02-15T18:01:37;43.55;;;24.70;;
66581;SDS011;53438;48.898;2.308;2023-02-15T18:04:27;47.00;;;25.53;;
66581;SDS011;53438;48.898;2.308;2023-02-15T18:07:11;45.13;;;25.20;;
66581;SDS011;53438;48.898;2.308;2023-02-15T18:09:55;49.70;;;27.45;;
66581;SDS011;53438;48.898;2.308;2023-02-15T18:12:39;43.70;;;26.35;;
66581;SDS011;53438;48.898;2.308;2023-02-15T18:15:05;45.13;;;24.70;;
66581;SDS011;53438;48.898;2.308;2023-02-15T18:17:32;43.72;;;25.10;;
66581;SDS011;53438;48.898;2.308;2023-02-15T18:20:10;39.25;;;23.42;;
66581;SDS011;53438;48.898;2.308;2023-02-15T18:22:52;44.03;;;25.38;;
66581;SDS011;53438;48.898;2.308;2023-02-15T18:25:19;41.77;;;23.67;;
66581;SDS011;53438;48.898;2.308;2023-02-15T18:27:46;38.25;;;22.85;;
66581;SDS011;53438;48.898;2.308;2023-02-15T18:30:12;38.47;;;20.87;;
66581;SDS011;53438;48.898;2.308;2023-02-15T18:32:41;37.10;;;20.70;;
66581;SDS011;53438;48.898;2.308;2023-02-15T18:35:08;37.72;;;21.55;;
66581;SDS011;53438;48.898;2.308;2023-02-15T18:37:39;38.13;;;22.30;;
66581;SDS011;53438;48.898;2.308;2023-02-15T18:40:04;37.10;;;20.55;;
66581;SDS011;53438;48.898;2.308;2023-02-15T18:42:34;36.10;;;19.83;;
66581;SDS011;53438;48.898;2.308;2023-02-15T18:45:03;39.63;;;20.85;;
66581;SDS011;53438;48.898;2.308;2023-02-15T18:47:38;33.03;;;20.27;;
66581;SDS011;53438;48.898;2.308;2023-02-15T18:50:04;33.80;;;20.60;;
66581;SDS011;53438;48.898;2.308;2023-02-15T18:52:31;35.33;;;21.05;;
66581;SDS011;53438;48.898;2.308;2023-02-15T18:54:59;31.25;;;19.15;;
66581;SDS011;53438;48.898;2.308;2023-02-15T18:57:26;33.22;;;16.95;;
66581;SDS011;53438;48.898;2.308;2023-02-15T18:59:52;34.78;;;18.63;;
66581;SDS011;53438;48.898;2.308;2023-02-15T19:02:18;28.43;;;17.13;;
66581;SDS011;53438;48.898;2.308;2023-02-15T19:04:44;30.77;;;17.37;;
66581;SDS011;53438;48.898;2.308;2023-02-15T19:07:18;31.75;;;16.85;;
66581;SDS011;53438;48.898;2.308;2023-02-15T19:09:48;33.08;;;18.42;;
66581;SDS011;53438;48.898;2.308;2023-02-15T19:12:16;29.53;;;16.67;;
66581;SDS011;53438;48.898;2.308;2023-02-15T19:14:43;32.13;;;16.70;;
66581;SDS011;53438;48.898;2.308;2023-02-15T19:17:12;29.80;;;17.33;;
66581;SDS011;53438;48.898;2.308;2023-02-15T19:19:40;30.10;;;16.35;;
66581;SDS011;53438;48.898;2.308;2023-02-15T19:22:08;27.43;;;16.20;;
66581;SDS011;53438;48.898;2.308;2023-02-15T19:24:38;27.38;;;16.48;;
66581;SDS011;53438;48.898;2.308;2023-02-15T19:27:06;28.25;;;15.07;;
66581;SDS011;53438;48.898;2.308;2023-02-15T19:29:34;25.77;;;15.33;;
66581;SDS011;53438;48.898;2.308;2023-02-15T19:32:00;29.40;;;14.80;;
66581;SDS011;53438;48.898;2.308;2023-02-15T19:34:26;25.57;;;14.93;;
66581;SDS011;53438;48.898;2.308;2023-02-15T19:36:52;22.33;;;13.13;;
66581;SDS011;53438;48.898;2.308;2023-02-15T19:39:28;23.23;;;12.63;;
66581;SDS011;53438;48.898;2.308;2023-02-15T19:41:57;22.67;;;12.77;;
66581;SDS011;53438;48.898;2.308;2023-02-15T19:44:22;26.00;;;14.40;;
66581;SDS011;53438;48.898;2.308;2023-02-15T19:46:49;23.77;;;13.18;;
66581;SDS011;53438;48.898;2.308;2023-02-15T19:49:15;21.37;;;13.83;;
66581;SDS011;53438;48.898;2.308;2023-02-15T19:51:40;20.23;;;12.77;;
66581;SDS011;53438;48.898;2.308;2023-02-15T19:54:18;23.30;;;14.25;;
66581;SDS011;53438;48.898;2.308;2023-02-15T19:56:49;25.27;;;14.30;;
66581;SDS011;53438;48.898;2.308;2023-02-15T19:59:32;22.05;;;13.05;;
66581;SDS011;53438;48.898;2.308;2023-02-15T20:01:58;22.47;;;12.10;;
66581;SDS011;53438;48.898;2.308;2023-02-15T20:04:24;21.50;;;12.60;;